Time;durP1;ratioP1;P1;durP2;ratioP2;P2;SDS_P1;SDS_P2;PMS_P1;PMS_P2;Temp;Humidity;BMP_temperature;BMP_pressure;BME280_temperature;BME280_humidity;BME280_pressure;Samples;Min_cycle;Max_cycle;Signal;HPM_P1;HPM_P2
2022/12/10 00:01:21;;;;;;;44.72;26.23;;;;;;;1.90;77.23;99024.28;5095588;28;20473;-81
2022/12/10 00:03:47;;;;;;;48.30;27.70;;;;;;;1.94;77.64;99033.53;5096731;28;20027;-81
2022/12/10 00:06:15;;;;;;;44.58;24.50;;;;;;;1.81;78.05;99034.50;5095605;28;20396;-81
2022/12/10 00:08:41;;;;;;;42.63;23.27;;;;;;;1.87;77.66;99038.19;5094606;28;20028;-81
2022/12/10 00:11:11;;;;;;;46.25;26.95;;;;;;;1.83;77.74;99047.75;5096866;28;20469;-82
2022/12/10 00:13:37;;;;;;;54.92;28.33;;;;;;;1.83;78.51;99034.31;5096979;28;20044;-81
2022/12/10 00:16:05;;;;;;;40.78;24.23;;;;;;;1.85;77.24;99029.53;5094631;28;20024;-81
2022/12/10 00:18:31;;;;;;;42.78;24.23;;;;;;;1.73;77.40;99032.94;5095900;28;20034;-81
2022/12/10 00:20:57;;;;;;;36.05;23.55;;;;;;;1.68;77.61;99037.34;5096587;28;20473;-81
2022/12/10 00:23:22;;;;;;;40.45;24.23;;;;;;;1.55;77.88;99030.25;5095007;28;20085;-82
2022/12/10 00:25:47;;;;;;;42.30;25.75;;;;;;;1.60;77.43;99025.03;5094818;28;20303;-81
2022/12/10 00:28:13;;;;;;;39.60;26.40;;;;;;;1.66;77.90;99029.50;5095659;28;20389;-82
2022/12/10 00:30:38;;;;;;;47.58;28.45;;;;;;;1.54;78.67;99028.63;5095535;28;20039;-81
2022/12/10 00:33:03;;;;;;;42.92;27.02;;;;;;;1.48;78.67;99038.38;5095883;28;20066;-81
2022/12/10 00:35:29;;;;;;;43.40;26.30;;;;;;;1.45;79.48;99036.13;5095077;28;20388;-81
2022/12/10 00:37:54;;;;;;;45.30;28.38;;;;;;;1.57;78.83;99036.22;5094218;28;20480;-81
2022/12/10 00:40:21;;;;;;;47.42;29.73;;;;;;;1.61;78.27;99040.94;5096266;28;20027;-81
2022/12/10 00:42:46;;;;;;;45.78;26.02;;;;;;;1.74;77.85;99041.84;5095522;28;20015;-81
2022/12/10 00:45:11;;;;;;;37.33;24.40;;;;;;;1.64;77.42;99036.97;5096129;28;20046;-82
2022/12/10 00:47:36;;;;;;;44.57;25.33;;;;;;;1.69;78.07;99036.31;5096558;28;20321;-81
2022/12/10 00:50:02;;;;;;;40.37;25.03;;;;;;;1.83;76.98;99037.78;5094349;28;20259;-82
2022/12/10 00:52:27;;;;;;;50.90;28.83;;;;;;;1.74;77.73;99039.97;5096218;28;20730;-81
2022/12/10 00:54:52;;;;;;;43.58;26.48;;;;;;;1.70;77.74;99038.78;5095880;28;20039;-81
2022/12/10 00:57:18;;;;;;;44.50;24.90;;;;;;;1.67;78.10;99039.22;5096099;28;20022;-81
2022/12/10 00:59:43;;;;;;;49.35;28.23;;;;;;;1.50;78.63;99042.50;5095717;28;20036;-81
2022/12/10 01:02:08;;;;;;;44.63;27.45;;;;;;;1.58;78.90;99040.56;5096211;28;20435;-81
2022/12/10 01:04:34;;;;;;;48.38;30.60;;;;;;;1.70;78.07;99038.78;5095373;28;20063;-81
2022/12/10 01:07:02;;;;;;;51.20;29.08;;;;;;;1.68;78.23;99043.56;5094767;28;20028;-81
2022/12/10 01:09:29;;;;;;;45.17;28.35;;;;;;;1.62;78.75;99036.38;5094363;28;20020;-81
2022/12/10 01:11:56;;;;;;;49.20;29.80;;;;;;;1.62;79.45;99044.44;5094475;28;20028;-81
2022/12/10 01:14:25;;;;;;;52.65;28.45;;;;;;;1.61;79.07;99040.09;5095250;28;20036;-81
2022/12/10 01:16:54;;;;;;;54.88;29.38;;;;;;;1.54;79.77;99050.09;5098615;28;20028;-81
2022/12/10 01:19:20;;;;;;;43.42;25.85;;;;;;;1.58;79.18;99045.94;5098369;28;20517;-81
2022/12/10 01:21:48;;;;;;;44.78;26.52;;;;;;;1.68;78.74;99046.25;5097261;28;20118;-81
2022/12/10 01:24:14;;;;;;;51.45;28.30;;;;;;;1.62;79.04;99041.75;5098378;28;20583;-81
2022/12/10 01:26:39;;;;;;;44.60;29.17;;;;;;;1.83;77.93;99053.13;5098566;28;20043;-81
2022/12/10 01:29:04;;;;;;;37.58;27.58;;;;;;;1.70;78.30;99049.53;5101144;28;20625;-81
2022/12/10 01:31:33;;;;;;;40.55;24.73;;;;;;;1.66;78.89;99053.72;5100985;28;20602;-81
2022/12/10 01:34:00;;;;;;;48.55;29.00;;;;;;;1.69;78.31;99050.56;5101423;28;20028;-81
2022/12/10 01:36:32;;;;;;;44.72;25.52;;;;;;;1.64;79.23;99058.47;5101505;28;20039;-80
2022/12/10 01:38:58;;;;;;;41.45;26.15;;;;;;;1.89;79.07;99062.97;5102001;28;20024;-81
2022/12/10 01:41:26;;;;;;;45.42;28.58;;;;;;;1.78;78.86;99066.41;5100314;28;20400;-82
2022/12/10 01:43:55;;;;;;;45.08;27.00;;;;;;;1.76;78.53;99063.94;5101512;28;20024;-82
2022/12/10 01:46:21;;;;;;;39.88;26.55;;;;;;;1.81;78.32;99064.06;5101586;28;20038;-81
2022/12/10 01:48:47;;;;;;;39.65;27.02;;;;;;;1.67;79.44;99076.84;5099646;27;20027;-82
2022/12/10 01:51:14;;;;;;;51.70;31.85;;;;;;;1.75;79.84;99079.22;5101749;27;20043;-81
2022/12/10 01:53:41;;;;;;;55.30;33.28;;;;;;;1.90;78.90;99078.03;5101309;28;20027;-81
2022/12/10 01:56:10;;;;;;;61.20;37.80;;;;;;;1.83;78.34;99075.44;5101323;28;20062;-81
2022/12/10 01:58:35;;;;;;;57.22;37.95;;;;;;;1.70;79.52;99080.94;5101187;28;20476;-82
2022/12/10 02:01:31;;;;;;;49.67;29.83;;;;;;;1.78;78.57;99075.28;5101506;28;20035;-81
2022/12/10 02:04:14;;;;;;;51.50;27.45;;;;;;;1.66;78.46;99079.75;5101036;28;20031;-81
2022/12/10 02:06:57;;;;;;;47.78;25.73;;;;;;;1.78;78.37;99071.75;5100993;28;20050;-82
2022/12/10 02:09:38;;;;;;;76.55;47.13;;;;;;;1.78;77.70;99077.16;5101076;28;20420;-81
2022/12/10 02:12:25;;;;;;;121.10;74.80;;;;;;;1.84;77.76;99081.63;5101001;28;20036;-81
2022/12/10 02:15:16;;;;;;;113.18;69.38;;;;;;;1.71;77.82;99079.91;5100734;28;20050;-82
2022/12/10 02:17:42;;;;;;;59.38;38.38;;;;;;;1.77;78.17;99080.88;5102683;28;20488;-82
2022/12/10 02:20:19;;;;;;;55.80;36.33;;;;;;;1.86;77.27;99080.38;5100953;28;20031;-81
2022/12/10 02:23:00;;;;;;;50.90;27.75;;;;;;;2.00;76.85;99074.84;5100484;28;20099;-81
2022/12/10 02:25:41;;;;;;;66.30;44.25;;;;;;;1.90;75.74;99075.34;5101279;27;20035;-82
2022/12/10 02:28:12;;;;;;;60.95;35.42;;;;;;;1.85;75.89;99070.66;5100029;28;20111;-82
2022/12/10 02:30:39;;;;;;;109.93;63.40;;;;;;;1.94;74.86;99071.19;5101065;28;20511;-82
2022/12/10 02:33:06;;;;;;;34.42;21.67;;;;;;;1.96;75.71;99074.47;5100705;28;20028;-82
2022/12/10 02:35:35;;;;;;;31.95;17.33;;;;;;;1.98;74.18;99075.06;5101025;28;20032;-82
2022/12/10 02:38:10;;;;;;;57.72;32.60;;;;;;;1.86;74.66;99071.47;5100766;28;20065;-81
2022/12/10 02:40:37;;;;;;;94.55;53.67;;;;;;;1.95;75.05;99069.31;5101575;28;20459;-82
2022/12/10 02:43:03;;;;;;;45.85;28.83;;;;;;;2.00;74.51;99064.06;5101824;28;20032;-81
2022/12/10 02:45:30;;;;;;;27.60;16.13;;;;;;;1.94;75.38;99063.13;5101587;28;20036;-82
2022/12/10 02:47:59;;;;;;;101.45;61.05;;;;;;;1.93;76.42;99066.03;5100577;28;20372;-82
2022/12/10 02:50:25;;;;;;;58.55;31.40;;;;;;;1.98;75.69;99061.63;5100367;28;20023;-82
2022/12/10 02:52:50;;;;;;;46.90;29.40;;;;;;;1.89;75.53;99064.84;5099919;28;20036;-81
2022/12/10 02:55:17;;;;;;;79.25;46.50;;;;;;;1.92;76.24;99067.91;5099415;28;20043;-82
2022/12/10 02:58:15;;;;;;;43.60;27.60;;;;;;;1.85;75.98;99076.03;5100776;28;20028;-81
2022/12/10 03:00:51;;;;;;;34.83;21.65;;;;;;;2.03;75.00;99062.81;5099052;28;20476;-82
2022/12/10 03:03:33;;;;;;;49.10;30.05;;;;;;;1.98;75.25;99066.16;5100385;28;20043;-81
2022/12/10 03:06:08;;;;;;;45.35;28.42;;;;;;;1.88;76.36;99066.69;5098550;28;20127;-82
2022/12/10 03:08:50;;;;;;;37.78;22.83;;;;;;;1.90;76.51;99071.84;5099670;28;20621;-82
2022/12/10 03:11:23;;;;;;;35.75;21.90;;;;;;;1.92;75.94;99081.34;5098822;28;20047;-82
2022/12/10 03:14:13;;;;;;;31.33;19.20;;;;;;;2.04;74.96;99077.88;5100156;28;20416;-81
2022/12/10 03:16:43;;;;;;;33.65;19.92;;;;;;;1.66;76.09;99077.06;5100720;28;20058;-82
2022/12/10 03:19:16;;;;;;;34.63;24.67;;;;;;;1.81;75.50;99082.09;5100624;28;20035;-81
2022/12/10 03:21:42;;;;;;;28.17;17.63;;;;;;;1.85;75.77;99080.59;5098613;28;20024;-81
2022/12/10 03:24:10;;;;;;;34.15;20.67;;;;;;;1.88;74.73;99082.81;5100429;28;20040;-81
2022/12/10 03:26:37;;;;;;;32.95;18.30;;;;;;;1.93;75.29;99082.16;5099774;28;20251;-81
2022/12/10 03:29:08;;;;;;;22.88;15.38;;;;;;;1.89;74.32;99089.03;5099787;28;20032;-81
2022/12/10 03:31:34;;;;;;;24.10;13.60;;;;;;;1.89;74.37;99089.88;5100922;28;20092;-81
2022/12/10 03:34:00;;;;;;;25.40;14.85;;;;;;;1.94;74.11;99087.31;5100558;28;20032;-81
2022/12/10 03:36:27;;;;;;;28.98;14.80;;;;;;;1.97;74.29;99092.22;5100535;27;20034;-81
2022/12/10 03:38:53;;;;;;;29.08;15.43;;;;;;;1.96;73.95;99090.59;5100043;28;20541;-82
2022/12/10 03:41:18;;;;;;;23.23;14.30;;;;;;;1.95;74.39;99088.94;5098471;28;20024;-81
2022/12/10 03:43:55;;;;;;;30.33;17.00;;;;;;;1.83;74.94;99096.94;5099708;28;20024;-81
2022/12/10 03:46:21;;;;;;;28.42;16.52;;;;;;;2.02;75.41;99098.81;5100285;28;20504;-82
2022/12/10 03:48:47;;;;;;;25.23;15.27;;;;;;;2.00;74.75;99100.88;5098229;28;20027;-81
2022/12/10 03:51:12;;;;;;;26.00;16.50;;;;;;;2.00;74.59;99095.50;5100623;28;20032;-82
2022/12/10 03:53:37;;;;;;;27.45;16.83;;;;;;;1.97;74.52;99092.22;5099676;28;20031;-81
2022/12/10 03:56:03;;;;;;;27.30;15.85;;;;;;;2.02;74.76;99096.09;5099663;28;20122;-82
2022/12/10 03:58:28;;;;;;;30.40;18.25;;;;;;;1.79;75.36;99092.25;5099147;28;20105;-81
2022/12/10 04:00:53;;;;;;;28.70;16.37;;;;;;;1.90;75.78;99102.25;5099189;28;20039;-81
2022/12/10 04:03:18;;;;;;;28.52;16.73;;;;;;;1.80;75.96;99096.56;5097945;28;20286;-81
2022/12/10 04:05:44;;;;;;;31.85;19.70;;;;;;;1.86;76.47;99090.28;5098811;28;20028;-81
2022/12/10 04:08:09;;;;;;;25.10;15.83;;;;;;;1.89;76.50;99095.25;5098775;28;20441;-81
2022/12/10 04:10:37;;;;;;;30.23;18.65;;;;;;;1.98;75.69;99096.56;5100016;28;20267;-82
2022/12/10 04:18:40;;;;;;;24.65;14.70;;;;;;;1.93;73.58;99085.66;5099388;28;20107;-81
2022/12/10 04:26:51;;;;;;;25.80;14.20;;;;;;;1.77;73.55;99091.66;5099579;28;20243;-82
2022/12/10 04:29:18;;;;;;;26.38;13.23;;;;;;;1.87;72.46;99097.34;5098491;28;20134;-82
2022/12/10 04:31:43;;;;;;;21.67;11.75;;;;;;;1.95;71.34;99090.81;5099487;28;20053;-81
2022/12/10 04:34:09;;;;;;;19.77;11.73;;;;;;;2.17;70.23;99091.19;5099426;28;20540;-81
2022/12/10 04:36:34;;;;;;;24.80;14.73;;;;;;;2.03;70.29;99087.00;5099030;28;20252;-82
2022/12/10 04:38:59;;;;;;;23.90;13.70;;;;;;;1.95;69.58;99088.13;5099506;28;20028;-82
2022/12/10 04:41:25;;;;;;;20.45;11.60;;;;;;;1.98;69.42;99088.50;5097694;28;20028;-81
2022/12/10 04:43:51;;;;;;;21.97;11.17;;;;;;;1.93;70.11;99091.03;5099246;28;20468;-81
2022/12/10 04:46:16;;;;;;;22.85;12.10;;;;;;;2.06;69.98;99091.94;5097769;28;20292;-82
2022/12/10 04:48:42;;;;;;;20.53;13.70;;;;;;;1.92;70.20;99094.78;5098261;28;20047;-81
2022/12/10 04:51:07;;;;;;;18.53;11.00;;;;;;;1.89;71.12;99094.41;5100849;28;20257;-81
2022/12/10 04:53:32;;;;;;;21.50;12.95;;;;;;;1.91;71.80;99103.06;5102865;28;20267;-81
2022/12/10 04:55:57;;;;;;;21.00;12.53;;;;;;;1.91;70.88;99098.50;5103010;28;20035;-81
2022/12/10 04:58:23;;;;;;;20.38;11.63;;;;;;;1.90;70.92;99102.25;5102154;28;20245;-81
2022/12/10 05:00:48;;;;;;;24.35;11.18;;;;;;;1.84;71.46;99108.50;5102172;28;20031;-81
2022/12/10 05:03:13;;;;;;;25.40;15.05;;;;;;;1.91;71.75;99100.38;5101992;28;20050;-81
2022/12/10 05:05:39;;;;;;;26.93;13.77;;;;;;;1.81;71.03;99100.91;5102224;28;20068;-81
2022/12/10 05:08:04;;;;;;;25.70;14.27;;;;;;;1.93;71.22;99104.47;5101891;28;20286;-82
2022/12/10 05:10:30;;;;;;;22.80;12.13;;;;;;;1.96;70.86;99109.41;5102548;28;20397;-81
2022/12/10 05:12:55;;;;;;;25.00;14.05;;;;;;;1.98;70.88;99104.63;5102993;28;20067;-82
2022/12/10 05:15:21;;;;;;;21.17;14.45;;;;;;;1.87;71.01;99102.72;5101419;28;20032;-81
2022/12/10 05:17:46;;;;;;;23.50;12.13;;;;;;;1.79;70.76;99105.69;5101996;28;20036;-80
2022/12/10 05:20:11;;;;;;;20.63;13.07;;;;;;;1.91;71.05;99111.94;5102152;28;20508;-81
2022/12/10 05:25:20;;;;;;;21.45;12.80;;;;;;;1.84;71.54;99112.03;5101233;28;20043;-82
2022/12/10 05:27:46;;;;;;;20.00;13.77;;;;;;;1.85;71.63;99104.78;5102031;28;20036;-81
2022/12/10 05:30:11;;;;;;;22.92;12.73;;;;;;;1.88;71.81;99098.97;5101529;28;20429;-82
2022/12/10 05:32:37;;;;;;;26.05;14.73;;;;;;;1.78;72.07;99104.84;5103043;28;20503;-81
2022/12/10 05:35:04;;;;;;;21.27;12.00;;;;;;;1.85;71.67;99104.78;5100418;28;20040;-81
2022/12/10 05:37:29;;;;;;;22.35;13.18;;;;;;;1.84;71.10;99105.81;5101164;28;20055;-81
2022/12/10 05:39:54;;;;;;;25.05;12.25;;;;;;;1.83;71.13;99112.25;5100726;28;20102;-82
2022/12/10 05:42:19;;;;;;;24.70;14.23;;;;;;;1.79;70.59;99100.31;5102081;28;20035;-81
2022/12/10 05:44:45;;;;;;;26.92;12.93;;;;;;;1.81;70.22;99106.28;5099976;28;20036;-81
2022/12/10 05:47:10;;;;;;;25.23;13.32;;;;;;;1.84;71.50;99111.19;5101590;28;20031;-82
2022/12/10 05:49:35;;;;;;;21.30;12.38;;;;;;;1.87;70.65;99113.47;5101377;28;20558;-82
2022/12/10 05:52:01;;;;;;;20.77;13.20;;;;;;;1.88;70.83;99112.41;5101532;28;20074;-82
2022/12/10 05:54:26;;;;;;;21.33;11.47;;;;;;;1.85;70.53;99113.66;5100888;28;20035;-81
2022/12/10 05:56:51;;;;;;;19.50;13.57;;;;;;;1.83;70.88;99109.56;5100815;28;20322;-81
2022/12/10 05:59:16;;;;;;;21.13;13.48;;;;;;;1.70;70.81;99110.53;5101888;28;20256;-82
2022/12/10 06:01:42;;;;;;;23.07;12.37;;;;;;;1.88;69.92;99108.88;5100216;28;20072;-81
2022/12/10 06:04:07;;;;;;;23.17;12.18;;;;;;;1.89;69.76;99119.44;5101114;28;20291;-81
2022/12/10 06:06:37;;;;;;;21.70;12.02;;;;;;;2.00;69.64;99111.66;5101350;28;20030;-81
2022/12/10 06:09:04;;;;;;;23.05;10.52;;;;;;;1.92;68.69;99116.28;5102232;28;20380;-81
2022/12/10 06:11:29;;;;;;;20.73;12.10;;;;;;;1.79;69.10;99105.69;5100854;28;20020;-81
2022/12/10 06:13:56;;;;;;;20.02;11.23;;;;;;;1.82;67.57;99121.34;5099929;28;20127;-81
2022/12/10 06:16:23;;;;;;;20.73;11.55;;;;;;;1.71;68.99;99112.97;5099977;28;20111;-81
2022/12/10 06:18:48;;;;;;;19.00;11.25;;;;;;;1.74;68.60;99123.31;5100921;28;20488;-81
2022/12/10 06:21:15;;;;;;;17.42;11.38;;;;;;;1.82;67.84;99115.97;5101755;28;20059;-81
2022/12/10 06:23:42;;;;;;;19.33;10.75;;;;;;;1.70;68.35;99124.78;5101524;28;20108;-81
2022/12/10 06:26:08;;;;;;;15.80;10.07;;;;;;;1.54;69.52;99119.97;5100383;28;20023;-81
2022/12/10 06:28:34;;;;;;;19.60;11.20;;;;;;;1.39;69.92;99123.81;5101378;28;20607;-81
2022/12/10 06:31:00;;;;;;;22.33;12.23;;;;;;;1.73;68.31;99110.88;5101061;28;20198;-82
2022/12/10 06:33:25;;;;;;;21.17;11.60;;;;;;;1.36;69.32;99119.69;5099963;28;20084;-81
2022/12/10 06:35:51;;;;;;;20.65;11.88;;;;;;;1.27;70.31;99124.53;5099206;28;20057;-82
2022/12/10 06:38:16;;;;;;;22.00;14.55;;;;;;;1.34;69.50;99129.03;5100647;28;20028;-81
2022/12/10 06:40:41;;;;;;;22.42;14.55;;;;;;;1.21;69.82;99122.72;5100863;28;20088;-82
2022/12/10 06:43:07;;;;;;;20.13;13.70;;;;;;;1.29;70.64;99121.63;5100797;28;20028;-81
2022/12/10 06:45:32;;;;;;;28.88;15.90;;;;;;;1.23;70.22;99120.63;5098759;28;20043;-82
2022/12/10 06:47:57;;;;;;;24.03;14.17;;;;;;;1.19;71.45;99132.88;5099060;28;20069;-81
2022/12/10 06:50:22;;;;;;;31.55;15.20;;;;;;;1.17;71.50;99129.56;5100864;28;20256;-81
2022/12/10 06:52:50;;;;;;;23.20;14.43;;;;;;;1.21;70.44;99129.94;5100470;28;20552;-82
2022/12/10 06:55:15;;;;;;;26.70;15.13;;;;;;;1.19;70.99;99124.81;5099715;28;20264;-81
2022/12/10 06:57:41;;;;;;;23.60;14.55;;;;;;;1.17;71.09;99143.00;5100715;28;20358;-81
2022/12/10 07:00:07;;;;;;;27.27;15.77;;;;;;;1.11;71.45;99139.31;5100795;28;20408;-82
2022/12/10 07:02:35;;;;;;;26.38;15.30;;;;;;;1.06;70.93;99141.81;5100343;28;20271;-81
2022/12/10 07:05:00;;;;;;;25.80;16.05;;;;;;;0.99;71.42;99151.78;5099983;28;20032;-81
2022/12/10 07:07:25;;;;;;;27.95;17.25;;;;;;;1.01;71.39;99145.19;5100305;28;20035;-82
2022/12/10 07:09:51;;;;;;;24.40;15.17;;;;;;;1.04;70.88;99149.28;5097667;28;20399;-81
2022/12/10 07:12:16;;;;;;;29.35;17.23;;;;;;;1.08;70.69;99149.69;5100762;28;20261;-81
2022/12/10 07:14:41;;;;;;;29.23;17.23;;;;;;;1.03;71.11;99145.78;5100251;28;20047;-81
2022/12/10 07:17:06;;;;;;;24.83;15.00;;;;;;;1.09;70.40;99160.19;5099852;28;20292;-81
2022/12/10 07:19:32;;;;;;;25.48;15.57;;;;;;;1.07;70.04;99164.13;5100614;28;20342;-82
2022/12/10 07:21:57;;;;;;;28.38;15.93;;;;;;;0.91;71.35;99163.63;5100710;28;20027;-80
2022/12/10 07:24:22;;;;;;;22.80;12.73;;;;;;;0.87;71.05;99160.53;5098710;28;20457;-82
2022/12/10 07:26:47;;;;;;;23.80;13.98;;;;;;;0.97;70.68;99162.75;5099858;28;20318;-81
2022/12/10 07:29:19;;;;;;;29.92;13.35;;;;;;;0.93;70.79;99169.59;5099547;28;20046;-82
2022/12/10 07:31:45;;;;;;;27.25;13.13;;;;;;;0.87;71.23;99165.09;5099810;28;20052;-81
2022/12/10 07:34:11;;;;;;;27.77;15.73;;;;;;;0.97;71.07;99172.66;5100351;28;20085;-81
2022/12/10 07:36:37;;;;;;;26.27;13.93;;;;;;;0.80;71.90;99181.22;5098359;28;20464;-81
2022/12/10 07:39:05;;;;;;;28.77;14.43;;;;;;;0.91;71.06;99177.88;5099939;28;20050;-81
2022/12/10 07:41:30;;;;;;;23.65;13.77;;;;;;;0.85;71.38;99176.03;5099509;28;20057;-81
2022/12/10 07:43:55;;;;;;;23.40;14.23;;;;;;;0.90;71.29;99172.69;5099733;28;20027;-81
2022/12/10 07:46:23;;;;;;;32.50;15.60;;;;;;;0.81;72.14;99172.94;5099706;28;20032;-82
2022/12/10 07:48:49;;;;;;;24.15;13.90;;;;;;;0.97;71.41;99172.66;5098684;28;20338;-82
2022/12/10 07:51:16;;;;;;;27.88;15.95;;;;;;;0.94;71.34;99181.97;5099247;28;20119;-81
2022/12/10 07:53:42;;;;;;;26.33;15.70;;;;;;;0.84;71.92;99178.91;5098106;28;20024;-81
2022/12/10 07:56:08;;;;;;;26.50;15.60;;;;;;;0.87;71.70;99183.88;5097752;28;20396;-81
2022/12/10 07:58:34;;;;;;;29.45;16.73;;;;;;;0.87;71.98;99181.19;5098791;28;20035;-81
2022/12/10 08:01:04;;;;;;;24.25;16.00;;;;;;;0.86;71.95;99187.59;5099070;28;20030;-81
2022/12/10 08:03:30;;;;;;;33.08;17.88;;;;;;;0.83;71.92;99191.53;5098687;28;20031;-81
2022/12/10 08:06:07;;;;;;;24.60;16.13;;;;;;;0.84;71.84;99197.72;5098812;28;20118;-81
2022/12/10 08:08:34;;;;;;;37.47;20.00;;;;;;;0.95;72.03;99196.22;5099938;28;20028;-81
2022/12/10 08:11:00;;;;;;;33.20;16.95;;;;;;;0.85;72.65;99205.56;5099207;28;20337;-81
2022/12/10 08:13:26;;;;;;;32.28;18.13;;;;;;;0.81;72.56;99198.97;5097281;28;20036;-81
2022/12/10 08:15:52;;;;;;;30.75;18.33;;;;;;;0.82;72.60;99200.63;5096707;28;20036;-81
2022/12/10 08:18:17;;;;;;;27.50;17.50;;;;;;;0.75;72.75;99205.19;5098877;28;20099;-81
2022/12/10 08:20:42;;;;;;;26.45;15.07;;;;;;;0.87;73.42;99214.22;5099302;28;20031;-80
2022/12/10 08:23:07;;;;;;;31.55;18.45;;;;;;;0.83;72.81;99217.56;5097668;28;20028;-81
2022/12/10 08:25:33;;;;;;;29.90;18.90;;;;;;;0.83;73.31;99217.56;5094713;28;20056;-82
2022/12/10 08:27:59;;;;;;;31.83;17.27;;;;;;;0.89;73.46;99214.84;5098443;28;20252;-82
2022/12/10 08:30:25;;;;;;;31.23;17.75;;;;;;;0.92;73.03;99221.63;5098373;28;20268;-81
2022/12/10 08:32:50;;;;;;;29.67;20.30;;;;;;;0.99;72.89;99222.44;5098080;28;20068;-80
2022/12/10 08:35:15;;;;;;;32.58;20.73;;;;;;;0.95;73.01;99223.06;5101510;28;20031;-81
2022/12/10 08:37:41;;;;;;;57.97;25.08;;;;;;;1.06;72.84;99216.22;5098145;28;20016;-81
2022/12/10 08:40:07;;;;;;;32.92;22.02;;;;;;;1.14;73.03;99224.00;5097449;28;20093;-81
2022/12/10 08:42:32;;;;;;;31.00;18.48;;;;;;;0.97;73.90;99219.13;5098759;28;20773;-81
2022/12/10 08:44:58;;;;;;;34.90;20.47;;;;;;;1.09;73.57;99234.56;5099227;28;20386;-81
2022/12/10 08:47:23;;;;;;;32.03;21.33;;;;;;;1.07;73.72;99229.41;5100243;28;20267;-80
2022/12/10 08:49:48;;;;;;;31.37;19.80;;;;;;;1.23;72.99;99235.31;5100058;28;20024;-81
2022/12/10 08:52:13;;;;;;;40.33;23.08;;;;;;;1.13;73.41;99238.47;5099084;28;20767;-81
2022/12/10 08:54:39;;;;;;;30.45;20.70;;;;;;;1.06;74.13;99237.69;5094483;28;20464;-81
2022/12/10 08:57:04;;;;;;;35.08;23.38;;;;;;;1.15;73.85;99249.81;5096400;28;20046;-80
2022/12/10 08:59:29;;;;;;;39.70;25.42;;;;;;;0.96;74.84;99249.69;5098205;28;20031;-80
2022/12/10 09:01:54;;;;;;;42.22;24.38;;;;;;;1.00;74.78;99256.28;5095341;28;20035;-81
2022/12/10 09:04:20;;;;;;;41.37;27.27;;;;;;;1.09;74.71;99254.19;5096628;28;20114;-81
2022/12/10 09:06:45;;;;;;;52.33;26.80;;;;;;;0.97;74.38;99254.03;5096828;28;20721;-81
2022/12/10 09:09:11;;;;;;;43.88;22.90;;;;;;;0.71;75.64;99247.75;5097476;28;20279;-81
2022/12/10 09:11:36;;;;;;;44.28;25.40;;;;;;;0.94;74.74;99259.81;5098296;28;20031;-81
2022/12/10 09:14:01;;;;;;;43.70;24.65;;;;;;;0.72;74.86;99254.75;5098086;28;20172;-81
2022/12/10 09:16:32;;;;;;;51.45;29.92;;;;;;;0.60;76.66;99261.81;5095154;28;20051;-80
2022/12/10 09:18:58;;;;;;;42.40;30.70;;;;;;;0.76;76.04;99272.09;5098253;28;20032;-81
2022/12/10 09:21:24;;;;;;;42.95;25.83;;;;;;;0.99;74.93;99272.63;5099202;28;20376;-82
2022/12/10 09:23:51;;;;;;;55.35;30.05;;;;;;;1.11;74.54;99273.59;5098884;28;20023;-80
2022/12/10 09:26:17;;;;;;;42.30;28.55;;;;;;;0.80;75.67;99273.31;5097546;28;20042;-81
2022/12/10 09:28:43;;;;;;;51.95;28.98;;;;;;;0.89;75.23;99271.22;5099301;28;20015;-81
2022/12/10 09:31:09;;;;;;;41.35;27.10;;;;;;;1.04;75.18;99273.63;5097191;28;20027;-81
2022/12/10 09:33:35;;;;;;;49.53;29.17;;;;;;;1.04;74.62;99284.34;5098993;28;20035;-81
2022/12/10 09:36:06;;;;;;;53.92;30.27;;;;;;;1.14;73.72;99283.09;5099277;28;20024;-81
2022/12/10 09:38:34;;;;;;;38.03;26.33;;;;;;;0.69;74.50;99282.03;5102389;28;20355;-81
2022/12/10 09:41:02;;;;;;;55.85;28.23;;;;;;;0.23;75.64;99279.22;5103291;28;20024;-81
2022/12/10 09:43:42;;;;;;;48.15;30.25;;;;;;;0.50;76.30;99287.22;5102901;28;20023;-81
2022/12/10 09:46:28;;;;;;;54.17;27.52;;;;;;;0.56;75.95;99285.56;5102104;28;20118;-81
2022/12/10 09:49:14;;;;;;;42.40;27.52;;;;;;;0.42;75.62;99285.59;5102651;28;20023;-81
2022/12/10 09:51:39;;;;;;;52.85;29.15;;;;;;;0.43;76.34;99281.03;5102010;28;20644;-80
2022/12/10 09:54:15;;;;;;;39.42;26.73;;;;;;;0.08;77.69;99282.13;5100357;28;20119;-81
2022/12/10 09:56:42;;;;;;;55.95;29.50;;;;;;;0.48;76.65;99283.94;5102285;28;20031;-81
2022/12/10 09:59:25;;;;;;;46.05;26.50;;;;;;;0.66;75.87;99282.44;5101811;28;20035;-80
2022/12/10 10:02:20;;;;;;;51.63;26.95;;;;;;;0.57;75.54;99276.50;5102189;28;20027;-80
2022/12/10 10:04:46;;;;;;;46.60;26.80;;;;;;;0.84;75.02;99278.25;5101153;28;20032;-81
2022/12/10 10:07:21;;;;;;;51.50;28.10;;;;;;;1.05;74.40;99282.50;5101891;28;20023;-81
2022/12/10 10:09:47;;;;;;;56.15;27.23;;;;;;;1.03;74.38;99281.88;5100516;28;20018;-81
2022/12/10 10:12:16;;;;;;;50.55;25.75;;;;;;;0.67;74.45;99281.41;5101510;28;20114;-80
2022/12/10 10:14:43;;;;;;;40.75;25.15;;;;;;;0.86;74.43;99281.53;5100714;27;20051;-81
2022/12/10 10:17:16;;;;;;;50.70;31.15;;;;;;;0.86;75.12;99278.84;5101285;28;20448;-81
2022/12/10 10:19:44;;;;;;;46.50;25.58;;;;;;;0.88;75.03;99274.91;5100161;28;20523;-81
2022/12/10 10:22:10;;;;;;;56.70;28.27;;;;;;;1.21;73.31;99278.50;5100496;28;20059;-81
2022/12/10 10:24:40;;;;;;;54.67;31.60;;;;;;;1.17;74.44;99285.34;5125807;27;20489;-81
2022/12/10 10:27:21;;;;;;;52.55;27.70;;;;;;;1.30;73.50;99280.94;5101210;28;20020;-81
2022/12/10 10:29:49;;;;;;;52.33;29.02;;;;;;;1.09;74.45;99270.28;5100491;28;20030;-82
2022/12/10 10:32:50;;;;;;;50.33;25.20;;;;;;;1.22;73.97;99269.38;5100211;28;20048;-81
2022/12/10 10:35:27;;;;;;;49.80;28.45;;;;;;;1.18;74.55;99272.75;5101011;28;20027;-81
2022/12/10 10:38:06;;;;;;;53.05;31.77;;;;;;;1.35;73.73;99273.88;5100256;28;20575;-81
2022/12/10 10:40:40;;;;;;;55.03;32.03;;;;;;;1.04;74.37;99278.97;5098622;28;20046;-81
2022/12/10 10:43:06;;;;;;;53.67;32.70;;;;;;;1.23;73.64;99287.16;5098337;28;20059;-81
2022/12/10 10:45:38;;;;;;;54.78;28.50;;;;;;;1.24;74.09;99282.63;5101462;28;20063;-81
2022/12/10 10:48:16;;;;;;;47.45;27.08;;;;;;;1.36;73.17;99286.25;5100047;28;20040;-81
2022/12/10 10:50:46;;;;;;;57.85;29.13;;;;;;;1.48;73.27;99293.66;5100426;28;20027;-81
2022/12/10 10:53:52;;;;;;;49.13;28.70;;;;;;;1.54;73.00;99283.88;5097378;28;20050;-81
2022/12/10 10:56:21;;;;;;;43.38;29.02;;;;;;;1.39;72.22;99290.38;5096907;28;20036;-81
2022/12/10 10:58:57;;;;;;;50.67;25.02;;;;;;;1.35;73.14;99284.63;5099384;28;20028;-80
2022/12/10 11:01:25;;;;;;;49.88;27.95;;;;;;;1.43;73.90;99290.75;5094718;28;20221;-80
2022/12/10 11:03:56;;;;;;;50.45;29.20;;;;;;;1.40;73.69;99281.28;5098559;28;20479;-81
2022/12/10 11:06:22;;;;;;;56.03;28.00;;;;;;;1.33;73.99;99277.81;5095381;28;20034;-83
2022/12/10 11:08:48;;;;;;;98.63;48.50;;;;;;;1.45;73.76;99278.78;5096574;28;20024;-81
2022/12/10 11:11:24;;;;;;;108.18;57.17;;;;;;;1.37;73.68;99282.53;5095189;28;20372;-82
2022/12/10 11:13:49;;;;;;;57.17;36.70;;;;;;;1.35;73.80;99289.16;5100305;28;20067;-80
2022/12/10 11:16:15;;;;;;;59.25;33.03;;;;;;;1.47;74.27;99284.75;5098971;28;20433;-81
2022/12/10 11:18:50;;;;;;;48.43;26.33;;;;;;;1.45;73.90;99286.00;5097013;28;20463;-80
2022/12/10 11:21:21;;;;;;;50.33;26.23;;;;;;;1.46;73.75;99293.88;5098697;28;20110;-81
2022/12/10 11:23:51;;;;;;;51.15;26.65;;;;;;;1.60;73.12;99291.91;5099302;28;20023;-81
2022/12/10 11:26:51;;;;;;;57.63;31.85;;;;;;;1.45;72.88;99292.22;5098407;28;20295;-81
2022/12/10 11:29:19;;;;;;;41.53;26.67;;;;;;;1.57;73.43;99278.91;5100159;28;20043;-81
2022/12/10 11:32:12;;;;;;;40.28;27.52;;;;;;;1.72;73.05;99280.47;5099339;28;20114;-81
2022/12/10 11:35:00;;;;;;;52.42;28.40;;;;;;;1.60;73.19;99272.28;5097724;28;20024;-81
2022/12/10 11:37:52;;;;;;;62.00;30.95;;;;;;;1.66;73.10;99281.31;5097164;28;20207;-81
2022/12/10 11:40:36;;;;;;;56.50;28.35;;;;;;;1.63;73.98;99291.47;5098118;28;20343;-80
2022/12/10 11:43:30;;;;;;;54.08;29.80;;;;;;;1.46;73.94;99282.28;5097419;28;20032;-82
2022/12/10 11:46:14;;;;;;;48.38;27.88;;;;;;;1.50;74.27;99273.59;5096613;28;20032;-81